Time;durP1;ratioP1;P1;durP2;ratioP2;P2;SDS_P1;SDS_P2;PMS_P1;PMS_P2;Temp;Humidity;BMP_temperature;BMP_pressure;BME280_temperature;BME280_humidity;BME280_pressure;Samples;Min_cycle;Max_cycle;Signal;HPM_P1;HPM_P2
2022/12/19 00:01:14;;;;;;;38.90;21.00;;;;;;;-143.84;73.82;45273.78;5115683;28;20486;-70
2022/12/19 00:03:42;;;;;;;39.33;20.20;;;;;;;-143.84;74.41;45250.91;5115853;28;20438;-71
2022/12/19 00:06:09;;;;;;;41.80;20.13;;;;;;;-143.84;74.66;45250.91;5115247;28;20446;-71
2022/12/19 00:08:36;;;;;;;38.93;19.80;;;;;;;-143.84;74.34;45249.00;5115618;28;20552;-71
2022/12/19 00:11:04;;;;;;;49.23;23.23;;;;;;;-143.84;74.42;45250.91;5115366;28;20491;-71
2022/12/19 00:13:32;;;;;;;37.73;22.20;;;;;;;-143.84;74.90;45233.78;5107179;28;20532;-71
2022/12/19 00:16:05;;;;;;;44.27;22.00;;;;;;;-143.84;74.81;45262.34;5094837;28;20878;-72
2022/12/19 00:18:32;;;;;;;39.37;21.30;;;;;;;-143.84;75.57;45256.63;5091480;28;20495;-71
2022/12/19 00:21:01;;;;;;;41.90;21.70;;;;;;;-143.84;75.81;45268.06;5091435;28;20481;-71
2022/12/19 00:23:30;;;;;;;38.73;21.77;;;;;;;-143.84;75.72;45266.16;5092021;28;20461;-71
2022/12/19 00:26:07;;;;;;;50.50;23.63;;;;;;;-143.84;75.84;45228.06;5091844;28;20442;-71
2022/12/19 00:28:34;;;;;;;41.50;23.00;;;;;;;-143.84;75.50;45231.88;5091006;28;20441;-71
2022/12/19 00:31:01;;;;;;;44.50;23.00;;;;;;;-143.84;76.32;45222.34;5131302;27;20447;-71
2022/12/19 00:33:30;;;;;;;52.87;24.87;;;;;;;-143.84;75.94;45247.09;5132442;27;20435;-71
2022/12/19 00:35:58;;;;;;;43.33;23.93;;;;;;;-143.84;75.54;45228.06;5132478;27;20439;-71
2022/12/19 00:38:26;;;;;;;43.70;23.03;;;;;;;-143.84;75.85;45224.25;5132381;27;20432;-71
2022/12/19 00:40:53;;;;;;;51.43;23.23;;;;;;;-143.84;75.38;45239.50;5132216;27;20470;-71
2022/12/19 00:43:20;;;;;;;55.50;24.77;;;;;;;-143.84;75.32;45258.53;5132436;27;21187;-71
2022/12/19 00:45:47;;;;;;;45.90;23.40;;;;;;;-143.84;75.63;45249.00;5132772;27;21133;-71
2022/12/19 00:48:16;;;;;;;46.60;22.77;;;;;;;-143.84;75.26;45256.63;5132336;27;20464;-71
2022/12/19 00:50:44;;;;;;;42.67;23.20;;;;;;;-143.84;75.86;45275.66;5132140;27;20435;-71
2022/12/19 00:53:11;;;;;;;46.50;23.77;;;;;;;-143.84;75.86;45235.69;5132142;27;20936;-71
2022/12/19 00:55:39;;;;;;;46.10;24.23;;;;;;;-143.84;76.34;45252.81;5131954;27;20434;-71
2022/12/19 00:58:06;;;;;;;46.03;24.57;;;;;;;-143.84;76.59;45247.09;5132002;27;20439;-71
2022/12/19 01:00:33;;;;;;;44.57;23.30;;;;;;;-143.84;76.64;45231.88;5131752;27;20489;-71
2022/12/19 01:03:00;;;;;;;46.47;24.90;;;;;;;-143.84;76.08;45254.72;5131735;27;20453;-71
2022/12/19 01:05:27;;;;;;;48.10;23.80;;;;;;;-143.84;76.12;45250.91;5131790;27;21032;-71
2022/12/19 01:07:55;;;;;;;46.20;22.43;;;;;;;-143.84;75.44;45252.81;5131664;27;20448;-71
2022/12/19 01:10:22;;;;;;;51.50;23.30;;;;;;;-143.84;75.75;45237.59;5132101;27;20495;-71
2022/12/19 01:12:49;;;;;;;48.63;25.33;;;;;;;-143.84;75.44;45229.97;5131504;27;20481;-71
2022/12/19 01:15:20;;;;;;;49.33;24.23;;;;;;;-143.84;75.70;45233.78;5131713;27;20460;-71
2022/12/19 01:17:47;;;;;;;47.80;22.53;;;;;;;-143.84;75.18;45228.06;5131465;27;20471;-71
2022/12/19 01:20:17;;;;;;;45.70;23.50;;;;;;;-143.84;75.40;45237.59;5131528;27;20983;-71
2022/12/19 01:22:44;;;;;;;39.83;22.77;;;;;;;-143.84;74.56;45224.25;5131457;27;20456;-71
2022/12/19 01:25:13;;;;;;;45.27;24.30;;;;;;;-143.84;74.82;45254.72;5131463;27;20438;-71
2022/12/19 01:27:40;;;;;;;43.07;23.07;;;;;;;-143.84;74.99;45271.88;5131384;27;20440;-71
2022/12/19 01:30:08;;;;;;;45.00;23.53;;;;;;;-143.84;75.03;45262.34;5130968;27;20439;-71
2022/12/19 01:32:36;;;;;;;47.70;23.47;;;;;;;-143.84;75.35;45308.03;5131137;27;20436;-71
2022/12/19 01:35:03;;;;;;;44.70;22.20;;;;;;;-143.84;75.39;45229.97;5131153;27;20442;-71
2022/12/19 01:37:30;;;;;;;43.07;21.80;;;;;;;-143.84;75.18;45266.16;5112899;27;20487;-71
2022/12/19 01:39:57;;;;;;;44.80;23.30;;;;;;;-143.84;75.65;45243.31;5130877;27;20527;-71
2022/12/19 01:42:26;;;;;;;45.07;23.00;;;;;;;-143.84;74.88;45277.56;5130981;27;20436;-71
2022/12/19 01:45:23;;;;;;;45.23;19.90;;;;;;;-143.84;75.58;45226.16;5130697;27;20440;-71
2022/12/19 01:47:53;;;;;;;45.17;22.77;;;;;;;-143.84;75.68;45228.06;5130633;27;20948;-71
2022/12/19 01:50:26;;;;;;;42.60;21.20;;;;;;;-143.84;75.92;45231.88;5130365;27;20447;-71
2022/12/19 01:52:55;;;;;;;44.37;21.30;;;;;;;-143.84;76.31;45233.78;5130452;27;20439;-71
2022/12/19 01:55:22;;;;;;;42.80;20.93;;;;;;;-143.84;76.38;45229.97;5130884;27;20443;-71
2022/12/19 01:57:51;;;;;;;43.03;21.33;;;;;;;-143.84;76.03;45264.25;5130704;27;20431;-71
2022/12/19 02:00:18;;;;;;;46.13;23.47;;;;;;;-143.84;76.49;45254.72;5130564;27;20514;-71
2022/12/19 02:02:50;;;;;;;40.40;21.23;;;;;;;-143.84;77.21;45239.50;5130548;27;20500;-70
2022/12/19 02:05:17;;;;;;;46.43;20.37;;;;;;;-143.84;76.58;45260.44;5130868;27;20858;-71
2022/12/19 02:07:45;;;;;;;44.20;20.17;;;;;;;-143.84;77.14;45258.53;5103933;27;20998;-71
2022/12/19 02:10:12;;;;;;;50.27;20.30;;;;;;;-143.84;76.83;45252.81;5089049;28;20436;-71
2022/12/19 02:12:43;;;;;;;39.07;19.23;;;;;;;-143.84;76.84;45243.31;5089236;28;20473;-71
2022/12/19 02:15:14;;;;;;;31.90;17.07;;;;;;;-143.84;76.86;45229.97;5089402;28;20471;-71
2022/12/19 02:17:55;;;;;;;32.63;18.87;;;;;;;-143.84;76.75;45266.16;5089673;28;20451;-71
2022/12/19 02:20:57;;;;;;;37.57;19.83;;;;;;;-143.84;77.02;45256.63;5089293;28;20483;-71
2022/12/19 02:23:51;;;;;;;32.23;15.70;;;;;;;-143.84;76.63;45266.16;5087742;28;20949;-70
2022/12/19 02:26:55;;;;;;;33.10;17.37;;;;;;;-143.84;76.15;45258.53;5045376;28;20443;-71
2022/12/19 02:29:49;;;;;;;27.50;15.20;;;;;;;-143.84;75.83;45268.06;5082352;28;20531;-71
2022/12/19 02:32:21;;;;;;;31.90;16.17;;;;;;;-143.84;75.22;45239.50;5072211;28;20444;-71
2022/12/19 02:34:56;;;;;;;32.07;16.90;;;;;;;-143.84;75.72;45245.19;5089199;28;20451;-71
2022/12/19 02:37:28;;;;;;;28.30;14.40;;;;;;;-143.84;75.13;45241.41;5094745;28;20439;-71
2022/12/19 02:39:59;;;;;;;32.13;15.83;;;;;;;-143.84;75.43;45247.09;5108787;28;20953;-70
2022/12/19 02:42:30;;;;;;;28.50;15.33;;;;;;;-143.84;75.74;45250.91;5109074;28;20978;-71
2022/12/19 02:44:59;;;;;;;36.57;16.30;;;;;;;-143.84;75.83;45235.69;5109510;28;20457;-71
2022/12/19 02:47:30;;;;;;;34.60;17.10;;;;;;;-143.84;76.56;45254.72;5109364;28;20954;-71
2022/12/19 02:49:57;;;;;;;29.00;14.80;;;;;;;-143.84;76.54;45237.59;5109473;28;20443;-71
2022/12/19 02:52:47;;;;;;;37.00;16.70;;;;;;;-143.84;76.51;45243.31;5109213;28;20500;-71
2022/12/19 02:55:19;;;;;;;30.37;15.13;;;;;;;-143.84;76.56;45241.41;5108626;28;20445;-71
2022/12/19 02:58:14;;;;;;;30.10;14.90;;;;;;;-143.84;76.27;45233.78;5109376;28;20435;-71
2022/12/19 03:00:54;;;;;;;23.23;12.67;;;;;;;-143.84;75.19;45252.81;5109073;28;20476;-71
2022/12/19 03:03:31;;;;;;;34.20;15.83;;;;;;;-143.84;74.78;45249.00;5109422;28;20439;-71
2022/12/19 03:06:08;;;;;;;26.80;13.33;;;;;;;-143.84;74.16;45239.50;5107623;28;20431;-71
2022/12/19 03:08:40;;;;;;;29.60;13.77;;;;;;;-143.84;74.51;45262.34;5108624;28;20443;-72
2022/12/19 03:11:12;;;;;;;34.30;14.20;;;;;;;-143.84;74.18;45233.78;5107030;28;20466;-72
2022/12/19 03:13:44;;;;;;;27.67;13.53;;;;;;;-143.84;74.67;45252.81;5084547;28;20521;-72
2022/12/19 03:16:12;;;;;;;31.77;15.43;;;;;;;-143.84;74.10;45239.50;5089013;28;20435;-72
2022/12/19 03:18:42;;;;;;;31.97;13.53;;;;;;;-143.84;74.37;45235.69;5088762;28;20448;-72
2022/12/19 03:21:15;;;;;;;25.10;13.20;;;;;;;-143.84;74.36;45258.53;5088716;28;20467;-72
2022/12/19 03:23:45;;;;;;;27.27;14.23;;;;;;;-143.84;74.25;45268.06;5088301;28;21037;-72
2022/12/19 03:26:17;;;;;;;30.40;13.80;;;;;;;-143.84;73.99;45262.34;5088467;28;20497;-72
2022/12/19 03:28:50;;;;;;;24.07;12.30;;;;;;;-143.84;74.37;45269.97;5088559;28;20452;-72
2022/12/19 03:31:21;;;;;;;25.70;13.60;;;;;;;-143.84;74.72;45247.09;5088575;28;20530;-72
2022/12/19 03:33:54;;;;;;;28.53;12.90;;;;;;;-143.84;74.70;45258.53;5088605;28;20436;-72
2022/12/19 03:36:29;;;;;;;23.20;12.60;;;;;;;-143.84;74.92;45250.91;5088712;28;20945;-72
2022/12/19 03:38:59;;;;;;;24.47;12.27;;;;;;;-143.84;74.02;45226.16;5088027;28;20431;-72
2022/12/19 03:44:10;;;;;;;21.40;12.27;;;;;;;-143.84;74.44;45243.31;5078995;28;20798;-72
2022/12/19 03:46:43;;;;;;;26.47;12.07;;;;;;;-143.84;74.78;45264.25;5090635;28;20855;-71
2022/12/19 03:49:13;;;;;;;27.73;13.20;;;;;;;-143.84;75.28;45268.06;5109353;28;20439;-70
2022/12/19 03:51:44;;;;;;;28.20;13.73;;;;;;;-143.84;75.24;45262.34;5108789;28;20503;-71
2022/12/19 03:54:16;;;;;;;29.13;14.33;;;;;;;-143.84;75.44;45241.41;5110623;28;20932;-72
2022/12/19 03:56:52;;;;;;;33.27;14.20;;;;;;;-143.84;75.27;45241.41;5112904;28;20823;-72
2022/12/19 03:59:27;;;;;;;32.13;13.47;;;;;;;-143.84;75.15;45229.97;5113218;28;20434;-72
2022/12/19 04:01:57;;;;;;;28.43;11.90;;;;;;;-143.84;75.72;45250.91;5105769;28;20475;-73
2022/12/19 04:04:28;;;;;;;24.50;13.20;;;;;;;-143.84;76.03;45247.09;5112854;28;20447;-71
2022/12/19 04:06:56;;;;;;;26.67;13.10;;;;;;;-143.84;75.80;45245.19;5112756;28;20450;-71
2022/12/19 04:09:24;;;;;;;28.87;13.97;;;;;;;-143.84;75.73;45254.72;5112047;28;20500;-70
2022/12/19 04:11:57;;;;;;;25.47;12.90;;;;;;;-143.84;75.82;45239.50;5112225;28;20924;-72
2022/12/19 04:14:28;;;;;;;23.73;13.20;;;;;;;-143.84;76.05;45250.91;5107732;28;20495;-71
2022/12/19 04:17:05;;;;;;;28.93;13.67;;;;;;;-143.84;75.69;45239.50;5094332;28;20420;-72
2022/12/19 04:19:37;;;;;;;27.40;13.17;;;;;;;-143.84;76.08;45268.06;5112345;28;20446;-71
2022/12/19 04:22:10;;;;;;;26.27;12.50;;;;;;;-143.84;75.67;45252.81;5112212;28;20494;-71
2022/12/19 04:24:40;;;;;;;26.87;13.50;;;;;;;-143.84;75.05;45285.19;5111673;28;20447;-72
2022/12/19 04:27:09;;;;;;;21.00;12.23;;;;;;;-143.84;74.83;45252.81;5108937;28;20509;-71
2022/12/19 04:29:38;;;;;;;22.60;12.07;;;;;;;-143.84;74.36;45266.16;5108790;28;21021;-71
2022/12/19 04:32:09;;;;;;;23.43;11.83;;;;;;;-143.84;74.43;45237.59;5112184;28;20500;-71
2022/12/19 04:34:37;;;;;;;26.00;13.17;;;;;;;-143.84;74.36;45256.63;5112662;28;20480;-71
2022/12/19 04:37:04;;;;;;;25.43;12.40;;;;;;;-143.84;74.81;45254.72;5112469;28;20454;-71
2022/12/19 04:39:32;;;;;;;23.80;11.33;;;;;;;-143.84;74.55;45254.72;5111913;28;20465;-70
2022/12/19 04:41:59;;;;;;;25.27;12.67;;;;;;;-143.84;74.30;45247.09;5112134;28;20486;-70
2022/12/19 04:44:26;;;;;;;27.70;13.63;;;;;;;-143.84;73.40;45260.44;5112042;28;20438;-71
2022/12/19 04:46:53;;;;;;;20.37;10.87;;;;;;;-143.84;73.36;45279.47;5111766;28;20442;-71
2022/12/19 04:49:20;;;;;;;28.43;13.50;;;;;;;-143.84;73.35;45268.06;5112388;28;20856;-70
2022/12/19 04:51:49;;;;;;;24.23;13.10;;;;;;;-143.84;73.89;45266.16;5111455;28;20504;-71
2022/12/19 04:54:16;;;;;;;23.40;11.40;;;;;;;-143.84;72.99;45285.19;5111461;28;20435;-71
2022/12/19 04:56:43;;;;;;;21.20;11.03;;;;;;;-143.84;73.06;45254.72;5105261;28;21006;-71
2022/12/19 04:59:10;;;;;;;29.13;11.53;;;;;;;-143.84;73.13;45254.72;5111538;28;20443;-71
2022/12/19 05:01:38;;;;;;;25.63;12.40;;;;;;;-143.84;73.28;45252.81;5112159;28;20470;-71
2022/12/19 05:04:05;;;;;;;27.73;12.10;;;;;;;-143.84;73.55;45252.81;5111419;28;20427;-71
2022/12/19 05:06:32;;;;;;;24.90;12.27;;;;;;;-143.84;73.20;45254.72;5111455;28;20488;-72
2022/12/19 05:09:01;;;;;;;23.07;10.30;;;;;;;-143.84;72.95;45266.16;5103841;28;20501;-71
2022/12/19 05:11:28;;;;;;;23.93;12.10;;;;;;;-143.84;72.53;45241.41;5111194;28;20447;-71
2022/12/19 05:13:55;;;;;;;25.30;10.53;;;;;;;-143.84;72.49;45266.16;5110810;28;20471;-71
2022/12/19 05:16:23;;;;;;;26.37;12.20;;;;;;;-143.84;72.41;45250.91;5111411;28;20438;-71
2022/12/19 05:18:50;;;;;;;23.40;9.93;;;;;;;-143.84;71.94;45237.59;5112160;28;20484;-71
2022/12/19 05:21:17;;;;;;;24.27;11.23;;;;;;;-143.84;71.31;45249.00;5110891;28;20471;-71
2022/12/19 05:23:44;;;;;;;20.33;9.73;;;;;;;-143.84;70.48;45268.06;5110600;28;20551;-70
2022/12/19 05:26:13;;;;;;;23.43;10.80;;;;;;;-143.84;70.54;45262.34;5104902;28;20462;-70
2022/12/19 05:28:40;;;;;;;26.80;10.30;;;;;;;-143.84;70.49;45273.78;5111595;28;20500;-71
2022/12/19 05:31:09;;;;;;;21.90;11.20;;;;;;;-143.84;70.62;45281.38;5110644;27;20439;-71
2022/12/19 05:33:37;;;;;;;18.07;10.60;;;;;;;-143.84;70.85;45306.13;5110845;28;21005;-71
2022/12/19 05:36:05;;;;;;;21.40;11.30;;;;;;;-143.84;71.36;45262.34;5110729;28;20435;-71
2022/12/19 05:38:33;;;;;;;18.10;9.90;;;;;;;-143.84;70.88;45254.72;5110581;28;20473;-71
2022/12/19 05:41:00;;;;;;;23.50;11.20;;;;;;;-143.84;70.86;45277.56;5107675;28;20448;-71
2022/12/19 05:43:28;;;;;;;21.40;10.63;;;;;;;-143.84;70.94;45250.91;5110532;28;20858;-71
2022/12/19 05:45:55;;;;;;;24.47;11.40;;;;;;;-143.84;70.88;45277.56;5110665;28;20443;-71
2022/12/19 05:48:22;;;;;;;22.87;10.43;;;;;;;-143.84;71.17;45271.88;5109580;28;20500;-71
2022/12/19 05:50:50;;;;;;;19.87;10.80;;;;;;;-143.84;71.37;45252.81;5109021;28;20989;-71
2022/12/19 05:53:17;;;;;;;24.90;11.00;;;;;;;-143.84;71.25;45277.56;5108893;28;20437;-71
2022/12/19 05:55:45;;;;;;;25.20;11.10;;;;;;;-143.84;71.03;45271.88;5108986;28;20469;-71
2022/12/19 05:58:12;;;;;;;23.10;11.47;;;;;;;-143.84;71.28;45260.44;5109147;28;20539;-71
2022/12/19 06:00:41;;;;;;;25.53;11.13;;;;;;;-143.84;71.28;45283.28;5108842;28;20439;-71
2022/12/19 06:03:08;;;;;;;26.90;11.47;;;;;;;-143.84;71.71;45269.97;5109098;28;20553;-71
2022/12/19 06:05:37;;;;;;;23.23;10.90;;;;;;;-143.84;71.74;45256.63;5109775;28;20443;-71
2022/12/19 06:08:05;;;;;;;17.40;10.30;;;;;;;-143.84;71.51;45262.34;5109936;28;20435;-71
2022/12/19 06:10:32;;;;;;;20.93;10.00;;;;;;;-143.84;71.48;45256.63;5102149;28;20444;-71
2022/12/19 06:12:59;;;;;;;24.47;11.83;;;;;;;-143.84;71.50;45277.56;5095597;28;20463;-71
2022/12/19 06:15:26;;;;;;;20.47;10.63;;;;;;;-143.84;71.12;45294.72;5101101;28;20458;-71
2022/12/19 06:17:57;;;;;;;22.87;11.63;;;;;;;-143.84;71.04;45260.44;5090447;28;20521;-71
2022/12/19 06:20:25;;;;;;;23.37;10.70;;;;;;;-143.84;70.40;45254.72;5097360;28;20452;-71
2022/12/19 06:22:52;;;;;;;22.90;10.70;;;;;;;-143.84;70.41;45241.41;5093015;27;20500;-71
2022/12/19 06:25:19;;;;;;;18.00;9.43;;;;;;;-143.84;69.26;45258.53;5089521;28;20793;-71
2022/12/19 06:27:46;;;;;;;21.20;10.50;;;;;;;-143.84;69.44;45256.63;5101924;28;20443;-70
2022/12/19 06:30:14;;;;;;;23.97;10.90;;;;;;;-143.84;69.40;45277.56;5105827;28;20455;-71
2022/12/19 06:32:41;;;;;;;22.93;10.20;;;;;;;-143.84;69.17;45256.63;5105290;28;20451;-71
2022/12/19 06:35:10;;;;;;;24.13;10.30;;;;;;;-143.84;68.92;45247.09;5104497;28;20450;-71
2022/12/19 06:37:37;;;;;;;27.27;12.20;;;;;;;-143.84;69.29;45249.00;5096763;28;20456;-71
2022/12/19 06:40:05;;;;;;;23.23;10.20;;;;;;;-143.84;69.23;45275.66;5104952;28;20511;-71
2022/12/19 06:42:31;;;;;;;26.43;11.60;;;;;;;-143.84;69.12;45269.97;5106600;28;20487;-71
2022/12/19 06:44:58;;;;;;;17.87;9.53;;;;;;;-143.84;69.77;45269.97;5104219;28;20451;-71
2022/12/19 06:47:25;;;;;;;20.93;10.50;;;;;;;-143.84;69.66;45262.34;5102515;28;20454;-71
2022/12/19 06:49:52;;;;;;;18.20;9.53;;;;;;;-143.84;69.29;45269.97;5105780;28;21349;-71
2022/12/19 06:52:21;;;;;;;22.27;10.63;;;;;;;-143.84;68.52;45273.78;5105806;28;20450;-71
2022/12/19 06:54:48;;;;;;;23.47;11.47;;;;;;;-143.84;68.91;45256.63;5108370;28;20447;-71
2022/12/19 06:57:15;;;;;;;29.50;11.63;;;;;;;-143.84;68.07;45268.06;5098910;28;20455;-71
2022/12/19 06:59:42;;;;;;;25.93;11.27;;;;;;;-143.84;67.31;45222.34;5103014;28;20461;-71
2022/12/19 07:02:21;;;;;;;20.70;10.13;;;;;;;-143.84;66.14;45264.25;5098752;28;20864;-72
2022/12/19 07:04:52;;;;;;;19.03;9.70;;;;;;;-143.84;65.95;45249.00;5107033;28;20558;-72
2022/12/19 07:07:21;;;;;;;24.00;10.63;;;;;;;-143.84;64.93;45262.34;5093218;28;20475;-71
2022/12/19 07:09:48;;;;;;;20.90;11.47;;;;;;;-143.84;63.44;45254.72;5101261;28;20523;-71
2022/12/19 07:12:16;;;;;;;23.53;11.30;;;;;;;-143.84;62.36;45247.09;5104550;28;20533;-71
2022/12/19 07:14:43;;;;;;;19.30;10.27;;;;;;;-143.84;63.12;45256.63;5105817;28;20453;-72
2022/12/19 07:17:11;;;;;;;18.80;9.97;;;;;;;-143.84;62.56;45237.59;5103495;28;20948;-71
2022/12/19 07:19:39;;;;;;;26.23;11.13;;;;;;;-143.84;61.46;45249.00;5107007;28;20459;-71
2022/12/19 07:22:07;;;;;;;19.83;11.57;;;;;;;-143.84;59.84;45249.00;5101810;28;20499;-71
2022/12/19 07:24:36;;;;;;;19.83;11.20;;;;;;;-143.84;58.64;45262.34;5096891;28;20442;-71
2022/12/19 07:27:04;;;;;;;17.13;9.90;;;;;;;-143.84;57.91;45249.00;5103206;28;20485;-72
2022/12/19 07:29:31;;;;;;;18.57;10.17;;;;;;;-143.84;57.63;45249.00;5112467;28;20455;-71
2022/12/19 07:31:59;;;;;;;22.80;11.30;;;;;;;-143.84;57.08;45254.72;5108456;28;20453;-72
2022/12/19 07:34:26;;;;;;;22.13;10.90;;;;;;;-143.84;57.40;45247.09;5112120;28;20470;-71
2022/12/19 07:36:53;;;;;;;27.03;12.53;;;;;;;-143.84;57.43;45231.88;5112181;28;20841;-71
2022/12/19 07:39:21;;;;;;;22.53;11.53;;;;;;;-143.84;58.67;45224.25;5109202;28;20443;-72
2022/12/19 07:41:50;;;;;;;19.83;9.43;;;;;;;-143.84;58.36;45250.91;5109241;28;20487;-72
2022/12/19 07:44:17;;;;;;;16.30;9.70;;;;;;;-143.84;58.98;45254.72;5108224;28;20974;-71
2022/12/19 07:46:44;;;;;;;19.37;10.23;;;;;;;-143.84;59.43;45247.09;5111503;28;20468;-72
2022/12/19 07:49:11;;;;;;;18.67;10.10;;;;;;;-143.84;59.47;45243.31;5098900;28;20960;-71
2022/12/19 07:51:38;;;;;;;17.27;9.70;;;;;;;-143.84;60.01;45266.16;5100664;28;20508;-72
2022/12/19 07:54:05;;;;;;;19.87;11.53;;;;;;;-143.84;60.20;45245.19;5111542;28;20459;-71
2022/12/19 07:56:32;;;;;;;19.90;10.70;;;;;;;-143.84;60.09;45273.78;5110152;27;20501;-71
2022/12/19 07:59:01;;;;;;;20.37;10.17;;;;;;;-143.84;60.43;45252.81;5107474;28;21160;-72
2022/12/19 08:01:28;;;;;;;21.87;10.20;;;;;;;-143.84;60.95;45233.78;5109109;28;20516;-71
2022/12/19 08:03:56;;;;;;;25.97;12.20;;;;;;;-143.84;60.68;45226.16;5111663;28;20544;-71
2022/12/19 08:06:23;;;;;;;24.30;11.27;;;;;;;-143.84;61.55;45249.00;5111595;28;20454;-71
2022/12/19 08:08:50;;;;;;;19.40;9.97;;;;;;;-143.84;60.41;45254.72;5108237;28;20481;-71
2022/12/19 08:11:25;;;;;;;17.57;9.73;;;;;;;-143.84;59.70;45264.25;5111657;28;20741;-71
2022/12/19 08:13:53;;;;;;;17.40;8.60;;;;;;;-143.84;58.82;45264.25;5098634;27;20485;-71
2022/12/19 08:16:22;;;;;;;30.90;10.10;;;;;;;-143.84;59.16;45226.16;5109457;28;20844;-71
2022/12/19 08:18:50;;;;;;;18.57;10.17;;;;;;;-143.84;58.54;45249.00;5102909;28;20443;-71
2022/12/19 08:21:17;;;;;;;20.80;9.50;;;;;;;-143.84;59.58;45241.41;5095278;28;20456;-72
2022/12/19 08:23:44;;;;;;;22.27;11.70;;;;;;;-143.84;59.10;45256.63;5102284;28;20490;-71
2022/12/19 08:26:14;;;;;;;32.53;11.50;;;;;;;-143.84;59.38;45260.44;5096099;28;20812;-71
2022/12/19 08:28:42;;;;;;;17.17;10.10;;;;;;;-143.84;59.82;45249.00;5103201;28;20450;-72
2022/12/19 08:31:11;;;;;;;21.00;10.77;;;;;;;-143.84;60.00;45239.50;5106030;28;20488;-72
2022/12/19 08:33:40;;;;;;;24.53;11.37;;;;;;;-143.84;58.45;45228.06;5093748;28;20463;-72
2022/12/19 08:36:09;;;;;;;25.43;10.33;;;;;;;-143.84;56.61;45243.31;5104073;28;20456;-72
2022/12/19 08:38:38;;;;;;;22.30;10.77;;;;;;;-143.84;56.56;45229.97;5096257;28;20851;-72
2022/12/19 08:41:06;;;;;;;20.13;10.40;;;;;;;-143.84;54.49;45231.88;5102031;28;20459;-72
2022/12/19 08:43:33;;;;;;;18.70;11.00;;;;;;;-143.84;53.67;45252.81;5097708;28;20571;-72
2022/12/19 08:46:00;;;;;;;25.43;11.63;;;;;;;-143.84;53.31;45243.31;5099943;28;20473;-72
2022/12/19 08:48:28;;;;;;;19.10;9.90;;;;;;;-143.84;51.08;45245.19;5100178;28;20455;-72
2022/12/19 08:50:58;;;;;;;17.40;10.13;;;;;;;-143.84;49.90;45224.25;5101474;28;20953;-72
2022/12/19 08:53:27;;;;;;;18.40;10.37;;;;;;;-143.84;48.67;45209.03;5102197;28;20853;-72
2022/12/19 08:55:56;;;;;;;20.73;11.40;;;;;;;-143.84;48.43;45212.84;5102692;28;20466;-72
2022/12/19 08:58:23;;;;;;;21.43;10.30;;;;;;;-143.84;48.46;45212.84;5103235;28;20455;-72
2022/12/19 09:00:51;;;;;;;20.93;9.70;;;;;;;-143.84;46.79;45205.22;5102786;28;20949;-72
2022/12/19 09:03:18;;;;;;;18.40;9.53;;;;;;;-143.84;45.72;45231.88;5103603;28;20480;-72
2022/12/19 09:05:46;;;;;;;18.47;10.77;;;;;;;-143.84;45.82;45212.84;5105875;28;20458;-72
2022/12/19 09:08:15;;;;;;;21.50;11.10;;;;;;;-143.84;45.44;45212.84;5102354;28;20442;-74
2022/12/19 09:10:42;;;;;;;15.90;9.93;;;;;;;-143.84;45.24;45184.25;5095931;28;20506;-72
2022/12/19 09:13:11;;;;;;;20.00;9.93;;;;;;;-143.84;45.59;45197.59;5102690;28;20477;-73
2022/12/19 09:15:38;;;;;;;20.63;9.90;;;;;;;-143.84;45.04;45222.34;5110019;28;20439;-72
2022/12/19 09:18:05;;;;;;;19.47;11.27;;;;;;;-143.84;43.84;45201.41;5110388;28;20807;-72
2022/12/19 09:20:32;;;;;;;31.53;10.80;;;;;;;-143.84;43.50;45176.66;5113291;27;20439;-72
2022/12/19 09:22:59;;;;;;;18.27;9.30;;;;;;;-143.84;42.33;45212.84;5110130;28;20494;-72
2022/12/19 09:25:28;;;;;;;22.67;10.70;;;;;;;-143.84;42.69;45210.94;5110077;28;22059;-72
2022/12/19 09:27:55;;;;;;;18.30;8.90;;;;;;;-143.84;42.36;45207.13;5110350;28;20455;-72
2022/12/19 09:30:23;;;;;;;14.97;8.53;;;;;;;-143.84;42.39;45203.31;5110864;28;20466;-73
2022/12/19 09:32:50;;;;;;;14.60;8.77;;;;;;;-143.84;40.94;45210.94;5110650;28;20436;-72
2022/12/19 09:35:17;;;;;;;14.33;8.30;;;;;;;-143.84;39.80;45195.69;5110600;28;20447;-72
2022/12/19 09:37:44;;;;;;;16.10;9.50;;;;;;;-143.84;41.49;45207.13;5109934;28;20447;-74
2022/12/19 09:40:17;;;;;;;14.77;8.87;;;;;;;-143.84;41.70;45180.47;5110541;28;20435;-73
2022/12/19 09:43:03;;;;;;;20.10;9.87;;;;;;;-143.84;42.68;45203.31;5110145;28;20479;-72
2022/12/19 09:45:42;;;;;;;15.87;10.07;;;;;;;-143.84;42.30;45201.41;5101785;28;20461;-72
2022/12/19 09:48:14;;;;;;;14.07;8.83;;;;;;;-143.84;41.90;45155.69;5090349;28;20452;-73
2022/12/19 09:50:49;;;;;;;16.40;8.13;;;;;;;-143.84;40.31;45195.69;5090300;28;20442;-73
2022/12/19 09:53:25;;;;;;;13.73;9.00;;;;;;;-143.84;39.61;45210.94;5089835;28;20515;-73
2022/12/19 09:55:54;;;;;;;15.73;7.07;;;;;;;-143.84;39.31;45197.59;5090103;28;21033;-70
2022/12/19 09:58:32;;;;;;;15.60;7.80;;;;;;;-143.84;39.04;45174.75;5089637;28;20467;-70
2022/12/19 10:01:06;;;;;;;11.20;7.17;;;;;;;-143.84;39.65;45182.38;5090153;28;20516;-70
2022/12/19 10:03:38;;;;;;;13.57;7.70;;;;;;;-143.84;39.64;45180.47;5089619;28;21010;-70
2022/12/19 10:06:12;;;;;;;16.30;8.27;;;;;;;-143.84;40.65;45174.75;5089799;28;20465;-70
2022/12/19 10:08:42;;;;;;;15.63;9.27;;;;;;;-143.84;40.40;45197.59;5089720;28;20447;-70
2022/12/19 10:11:19;;;;;;;20.40;9.07;;;;;;;-143.84;41.14;45210.94;5090132;28;20439;-70
2022/12/19 10:14:04;;;;;;;15.87;9.20;;;;;;;-143.84;39.86;45201.41;5088822;28;21334;-71
2022/12/19 10:16:43;;;;;;;13.60;7.80;;;;;;;-143.84;39.43;45169.03;5101690;28;20450;-71
2022/12/19 10:19:18;;;;;;;14.63;7.73;;;;;;;-143.84;38.84;45207.13;5109750;28;20927;-70
2022/12/19 10:21:54;;;;;;;13.53;7.47;;;;;;;-143.84;38.54;45186.16;5108752;28;20851;-70
2022/12/19 10:24:36;;;;;;;18.20;7.83;;;;;;;-143.84;39.50;45188.06;5110173;28;20480;-70
2022/12/19 10:27:13;;;;;;;11.97;7.10;;;;;;;-143.84;38.15;45151.91;5110099;28;20474;-70
2022/12/19 10:30:00;;;;;;;13.60;8.17;;;;;;;-143.84;38.84;45180.47;5109663;28;20441;-70
2022/12/19 10:32:35;;;;;;;26.70;8.53;;;;;;;-143.84;39.66;45184.25;5109787;28;20461;-70
2022/12/19 10:35:11;;;;;;;11.20;7.03;;;;;;;-143.84;39.09;45189.97;5109867;28;20459;-70
2022/12/19 10:37:47;;;;;;;10.10;6.57;;;;;;;-143.84;39.30;45201.41;5109984;28;20439;-70
2022/12/19 10:40:22;;;;;;;13.90;7.30;;;;;;;-143.84;38.98;45186.16;5109586;28;20514;-69
2022/12/19 10:42:52;;;;;;;12.17;8.10;;;;;;;-143.84;38.76;45191.88;5109565;28;20851;-70
2022/12/19 10:45:24;;;;;;;14.97;7.37;;;;;;;-143.84;37.90;45174.75;5109388;28;20506;-70
2022/12/19 10:47:56;;;;;;;23.20;7.60;;;;;;;-143.84;37.54;45197.59;5109415;28;20453;-69
2022/12/19 10:50:26;;;;;;;15.47;8.30;;;;;;;-143.84;38.36;45180.47;5109741;28;20447;-69
2022/12/19 10:52:55;;;;;;;12.70;7.63;;;;;;;-143.84;37.96;45161.41;5109313;28;20429;-69
2022/12/19 10:55:41;;;;;;;13.90;8.23;;;;;;;-143.84;38.81;45176.66;5109401;28;20798;-70
2022/12/19 10:58:23;;;;;;;11.13;6.70;;;;;;;-143.84;39.21;45163.31;5109363;28;20436;-70
2022/12/19 11:01:13;;;;;;;10.57;6.80;;;;;;;-143.84;39.32;45212.84;5109432;28;20449;-70
2022/12/19 11:03:42;;;;;;;15.03;8.80;;;;;;;-143.84;38.78;45176.66;5108653;28;20487;-70
2022/12/19 11:06:40;;;;;;;9.73;6.80;;;;;;;-143.84;39.94;45191.88;5109122;28;20498;-70
2022/12/19 11:09:28;;;;;;;12.07;8.23;;;;;;;-143.84;40.12;45169.03;5109193;28;20448;-69
2022/12/19 11:12:11;;;;;;;13.97;7.67;;;;;;;-143.84;39.66;45172.84;5109419;28;20437;-70
2022/12/19 11:14:41;;;;;;;11.40;7.57;;;;;;;-143.84;40.43;45216.63;5129944;28;20454;-69
2022/12/19 11:20:14;;;;;;;11.10;8.13;;;;;;;-143.84;38.74;45207.13;5106535;27;20540;-68
2022/12/19 11:22:51;;;;;;;11.60;7.70;;;;;;;-143.84;40.08;45189.97;5105756;28;20455;-68
2022/12/19 11:25:22;;;;;;;16.97;8.33;;;;;;;-143.84;39.70;45188.06;5105600;28;20502;-68